Time;durP1;ratioP1;P1;durP2;ratioP2;P2;SDS_P1;SDS_P2;PMS_P1;PMS_P2;Temp;Humidity;BMP_temperature;BMP_pressure;BME280_temperature;BME280_humidity;BME280_pressure;Samples;Min_cycle;Max_cycle;Signal;HPM_P1;HPM_P2
2023/05/01 00:00:09;;;;;;;0.10;0.10;;;11.80;99.90;;;;;;5091339;28;20027;-74
2023/05/01 00:02:36;;;;;;;0.10;0.10;;;11.70;99.90;;;;;;5087310;28;20051;-74
2023/05/01 00:05:03;;;;;;;0.10;0.10;;;11.70;99.90;;;;;;5066281;28;20119;-74
2023/05/01 00:07:30;;;;;;;0.10;0.10;;;11.70;99.90;;;;;;5085103;28;20160;-74
2023/05/01 00:09:58;;;;;;;0.10;0.10;;;11.70;99.90;;;;;;5085064;28;20028;-74
2023/05/01 00:12:24;;;;;;;0.20;0.20;;;11.60;99.90;;;;;;5083651;28;20061;-73
2023/05/01 00:14:51;;;;;;;0.10;0.10;;;11.50;99.90;;;;;;5090106;28;20115;-74
2023/05/01 00:17:16;;;;;;;0.10;0.10;;;11.50;99.90;;;;;;5092499;28;20028;-74
2023/05/01 00:19:42;;;;;;;0.15;0.15;;;11.50;99.90;;;;;;5088838;28;20036;-74
2023/05/01 00:22:08;;;;;;;0.10;0.10;;;11.40;99.90;;;;;;5085430;28;20214;-74
2023/05/01 00:24:34;;;;;;;1.85;1.65;;;11.40;99.90;;;;;;5085997;28;20016;-74
2023/05/01 00:26:59;;;;;;;0.10;0.10;;;11.40;99.90;;;;;;5088119;28;20413;-74
2023/05/01 00:29:25;;;;;;;4.45;4.20;;;11.30;99.90;;;;;;5084191;28;20028;-73
2023/05/01 00:31:51;;;;;;;2.50;2.40;;;11.30;99.90;;;;;;5088220;28;20472;-74
2023/05/01 00:34:17;;;;;;;0.30;0.30;;;11.30;99.90;;;;;;5091238;28;20028;-73
2023/05/01 00:36:42;;;;;;;0.45;0.45;;;11.20;99.90;;;;;;5085221;28;20035;-75
2023/05/01 00:39:08;;;;;;;0.10;0.10;;;11.20;99.90;;;;;;5089030;28;20205;-74
2023/05/01 00:41:34;;;;;;;0.10;0.10;;;11.20;99.90;;;;;;5086498;28;20565;-74
2023/05/01 00:44:00;;;;;;;0.10;0.10;;;11.10;99.90;;;;;;5086602;28;20043;-74
2023/05/01 00:46:28;;;;;;;8.02;7.43;;;11.10;99.90;;;;;;5086280;28;20028;-74
2023/05/01 00:48:55;;;;;;;0.20;0.20;;;11.10;99.90;;;;;;5085469;28;20013;-74
2023/05/01 00:51:21;;;;;;;0.20;0.20;;;11.10;99.90;;;;;;5090683;28;20103;-75
2023/05/01 00:53:49;;;;;;;0.10;0.10;;;11.20;99.90;;;;;;5091371;28;20036;-74
2023/05/01 00:56:16;;;;;;;14.05;8.35;;;10.10;99.90;;;;;;5086450;28;20161;-74
2023/05/01 00:58:43;;;;;;;0.50;0.50;;;10.90;99.90;;;;;;5085144;28;20030;-74
2023/05/01 01:01:09;;;;;;;0.20;0.20;;;;;;;;;;5084571;28;20638;-74
2023/05/01 01:03:35;;;;;;;0.10;0.10;;;10.90;99.90;;;;;;5089231;28;20227;-74
2023/05/01 01:06:04;;;;;;;0.10;0.10;;;11.10;99.90;;;;;;5083747;28;20024;-74
2023/05/01 01:08:40;;;;;;;0.10;0.10;;;10.90;99.90;;;;;;5084224;28;20048;-78
2023/05/01 01:11:16;;;;;;;0.10;0.10;;;10.80;99.90;;;;;;5086384;28;20016;-74
2023/05/01 01:14:05;;;;;;;0.10;0.10;;;8.00;99.90;;;;;;5082546;28;20078;-75
2023/05/01 01:16:47;;;;;;;0.20;0.20;;;11.50;99.90;;;;;;5085650;28;20217;-73
2023/05/01 01:19:31;;;;;;;0.10;0.10;;;11.20;99.90;;;;;;5083068;28;20169;-74
2023/05/01 01:22:14;;;;;;;0.20;0.20;;;11.00;99.90;;;;;;5087952;28;20503;-73
2023/05/01 01:25:08;;;;;;;0.10;0.10;;;11.00;99.90;;;;;;5086742;28;20017;-75
2023/05/01 01:27:57;;;;;;;0.20;0.20;;;11.10;99.90;;;;;;5079378;28;20024;-74
2023/05/01 01:30:41;;;;;;;0.20;0.20;;;11.10;99.90;;;;;;5081584;28;20036;-71
2023/05/01 01:33:21;;;;;;;0.20;0.20;;;11.50;99.90;;;;;;5083821;28;20024;-74
2023/05/01 01:35:56;;;;;;;0.10;0.10;;;11.10;99.90;;;;;;5084392;28;20349;-74
2023/05/01 01:38:29;;;;;;;0.10;0.10;;;11.10;99.90;;;;;;5087311;28;20542;-73
2023/05/01 01:41:00;;;;;;;0.10;0.10;;;11.10;99.90;;;;;;5086307;28;20671;-74
2023/05/01 01:43:30;;;;;;;0.10;0.10;;;11.10;99.90;;;;;;5091849;28;20021;-72
2023/05/01 01:46:02;;;;;;;0.20;0.20;;;11.00;99.90;;;;;;5087521;28;20024;-74
2023/05/01 01:48:35;;;;;;;0.10;0.10;;;11.00;99.90;;;;;;5086304;28;20034;-74
2023/05/01 01:51:09;;;;;;;0.10;0.10;;;11.10;99.90;;;;;;5095380;28;20081;-74
2023/05/01 01:53:36;;;;;;;0.20;0.20;;;11.00;99.90;;;;;;5084824;28;20308;-73
2023/05/01 01:56:05;;;;;;;0.10;0.10;;;10.90;99.90;;;;;;5087147;28;20031;-74
2023/05/01 01:58:32;;;;;;;0.10;0.10;;;10.90;99.90;;;;;;5084279;28;20457;-74
2023/05/01 02:00:58;;;;;;;1.20;1.20;;;10.80;99.90;;;;;;5085823;28;20189;-74
2023/05/01 02:03:26;;;;;;;0.10;0.10;;;10.00;99.90;;;;;;5084964;28;20403;-79
2023/05/01 02:05:55;;;;;;;0.10;0.10;;;10.70;99.90;;;;;;5084710;28;20035;-74
2023/05/01 02:08:23;;;;;;;0.10;0.10;;;10.60;99.90;;;;;;5091458;28;20030;-73
2023/05/01 02:10:51;;;;;;;0.10;0.10;;;10.70;99.90;;;;;;5082485;28;20077;-74
2023/05/01 02:13:18;;;;;;;0.10;0.10;;;10.70;99.90;;;;;;5082418;28;20012;-73
2023/05/01 02:15:46;;;;;;;0.10;0.10;;;10.50;99.90;;;;;;5086177;28;20020;-73
2023/05/01 02:18:13;;;;;;;0.60;0.60;;;10.50;99.90;;;;;;5082452;28;20028;-73
2023/05/01 02:20:41;;;;;;;0.10;0.10;;;10.50;99.90;;;;;;5082185;28;20085;-73
2023/05/01 02:23:08;;;;;;;0.20;0.20;;;10.50;99.90;;;;;;5082333;28;20270;-73
2023/05/01 02:25:37;;;;;;;0.10;0.10;;;10.50;99.90;;;;;;5093661;28;20063;-73
2023/05/01 02:28:19;;;;;;;0.20;0.20;;;10.50;99.90;;;;;;5089862;28;20035;-73
2023/05/01 02:30:45;;;;;;;0.17;0.17;;;10.40;99.90;;;;;;5090355;28;20040;-72
2023/05/01 02:33:11;;;;;;;0.10;0.10;;;10.30;99.90;;;;;;5091552;28;20020;-73
2023/05/01 02:35:42;;;;;;;0.10;0.10;;;10.30;99.90;;;;;;5086395;28;20426;-76
2023/05/01 02:38:09;;;;;;;0.20;0.20;;;10.30;99.90;;;;;;5090708;28;20024;-75
2023/05/01 02:40:37;;;;;;;0.10;0.10;;;10.20;99.90;;;;;;5088584;28;20367;-77
2023/05/01 02:43:07;;;;;;;0.10;0.10;;;10.20;99.90;;;;;;5082550;28;20113;-76
2023/05/01 02:45:37;;;;;;;0.10;0.10;;;10.10;99.90;;;;;;5082154;28;20023;-73
2023/05/01 02:48:05;;;;;;;0.10;0.10;;;10.10;99.90;;;;;;5079141;28;20430;-73
2023/05/01 02:50:33;;;;;;;0.10;0.10;;;10.10;99.90;;;;;;5081022;28;20075;-74
2023/05/01 02:53:00;;;;;;;0.13;0.13;;;10.10;99.90;;;;;;5084415;28;20027;-73
2023/05/01 02:55:26;;;;;;;0.10;0.10;;;10.10;99.90;;;;;;5084095;28;20468;-73
2023/05/01 02:57:52;;;;;;;0.17;0.17;;;10.00;99.90;;;;;;5081416;28;20085;-73
2023/05/01 03:00:19;;;;;;;0.10;0.10;;;9.90;99.90;;;;;;5082377;28;20031;-73
2023/05/01 03:02:46;;;;;;;0.03;0.03;;;9.90;99.90;;;;;;5080690;28;20028;-74
2023/05/01 03:05:12;;;;;;;0.10;0.10;;;9.90;99.90;;;;;;5084327;28;20017;-73
2023/05/01 03:07:38;;;;;;;0.10;0.10;;;9.80;99.90;;;;;;5082277;28;20035;-74
2023/05/01 03:10:06;;;;;;;0.10;0.10;;;9.80;99.90;;;;;;5092987;28;20020;-73
2023/05/01 03:12:32;;;;;;;0.00;0.00;;;9.70;99.90;;;;;;5083701;28;20012;-73
2023/05/01 03:14:59;;;;;;;0.10;0.10;;;9.70;99.90;;;;;;5085511;28;20587;-73
2023/05/01 03:17:24;;;;;;;0.10;0.10;;;9.70;99.90;;;;;;5082421;28;20517;-73
2023/05/01 03:19:50;;;;;;;0.95;0.95;;;9.70;99.90;;;;;;5082368;28;20028;-74
2023/05/01 03:22:17;;;;;;;0.10;0.10;;;9.60;99.90;;;;;;5090599;28;20024;-73
2023/05/01 03:24:42;;;;;;;0.10;0.10;;;9.60;99.90;;;;;;5081614;28;20219;-76
2023/05/01 03:27:08;;;;;;;0.10;0.10;;;9.60;99.90;;;;;;5093544;28;20513;-74
2023/05/01 03:29:36;;;;;;;0.10;0.10;;;9.60;99.90;;;;;;5084649;28;20389;-73
2023/05/01 03:32:03;;;;;;;0.10;0.10;;;9.50;99.90;;;;;;5086484;28;20078;-73
2023/05/01 03:34:28;;;;;;;0.10;0.10;;;9.50;99.90;;;;;;5085429;28;20498;-74
2023/05/01 03:36:55;;;;;;;0.10;0.10;;;9.50;99.90;;;;;;5093353;28;20056;-79
2023/05/01 03:39:21;;;;;;;0.10;0.10;;;9.40;99.90;;;;;;5083726;28;20294;-74
2023/05/01 03:41:47;;;;;;;3.15;3.00;;;9.40;99.90;;;;;;5080566;28;20023;-74
2023/05/01 03:44:13;;;;;;;0.10;0.10;;;9.40;99.90;;;;;;5082063;28;20024;-73
2023/05/01 03:46:39;;;;;;;0.10;0.10;;;9.40;99.90;;;;;;5082234;28;20044;-73
2023/05/01 03:49:05;;;;;;;0.10;0.10;;;9.40;99.90;;;;;;5085007;28;20043;-73
2023/05/01 03:51:31;;;;;;;0.10;0.10;;;9.40;99.90;;;;;;5093455;28;20016;-75
2023/05/01 03:53:57;;;;;;;0.10;0.10;;;9.40;99.90;;;;;;5087941;28;20036;-74
2023/05/01 03:56:27;;;;;;;0.10;0.10;;;9.30;99.90;;;;;;5086261;28;20020;-74
2023/05/01 03:58:52;;;;;;;0.10;0.10;;;9.20;99.90;;;;;;5090039;28;20501;-74
2023/05/01 04:01:18;;;;;;;0.10;0.10;;;9.30;99.90;;;;;;5091987;28;20024;-73
2023/05/01 04:03:45;;;;;;;0.10;0.10;;;9.30;99.90;;;;;;5088974;28;20094;-73
2023/05/01 04:06:11;;;;;;;1.60;1.60;;;9.30;99.90;;;;;;5085309;28;20380;-73
2023/05/01 04:08:37;;;;;;;0.10;0.10;;;9.20;99.90;;;;;;5085416;28;20107;-73
2023/05/01 04:11:03;;;;;;;0.13;0.13;;;9.30;99.90;;;;;;5087588;28;20276;-73
2023/05/01 04:13:29;;;;;;;0.05;0.05;;;9.30;99.90;;;;;;5084705;28;20038;-73
2023/05/01 04:15:58;;;;;;;0.20;0.20;;;9.30;99.90;;;;;;5084883;28;20457;-73
2023/05/01 04:18:23;;;;;;;0.10;0.10;;;9.40;99.90;;;;;;5085559;28;20089;-73
2023/05/01 04:20:50;;;;;;;0.10;0.10;;;9.40;99.90;;;;;;5084074;28;20513;-73
2023/05/01 04:23:15;;;;;;;0.10;0.10;;;9.50;99.90;;;;;;5084821;28;20026;-73
2023/05/01 04:25:41;;;;;;;0.10;0.10;;;9.50;99.90;;;;;;5089793;28;20020;-73
2023/05/01 04:28:11;;;;;;;0.82;0.82;;;9.50;99.90;;;;;;5084216;28;20063;-73
2023/05/01 04:30:37;;;;;;;0.10;0.10;;;10.30;99.90;;;;;;5084023;28;20403;-74
2023/05/01 04:33:09;;;;;;;0.10;0.10;;;9.40;99.90;;;;;;5084428;28;20031;-73
2023/05/01 04:35:35;;;;;;;0.20;0.20;;;9.40;99.90;;;;;;5085919;28;20502;-73
2023/05/01 04:38:01;;;;;;;0.10;0.10;;;8.80;99.90;;;;;;5089392;28;20093;-73
2023/05/01 04:40:27;;;;;;;0.10;0.10;;;9.40;99.90;;;;;;5084095;28;20101;-73
2023/05/01 04:42:53;;;;;;;0.10;0.10;;;9.40;99.90;;;;;;5093551;28;20043;-74
2023/05/01 04:45:18;;;;;;;0.10;0.10;;;9.50;99.90;;;;;;5085103;28;20402;-73
2023/05/01 04:47:44;;;;;;;0.60;0.60;;;9.50;99.90;;;;;;5091400;28;20028;-73
2023/05/01 04:50:10;;;;;;;0.10;0.10;;;8.00;99.90;;;;;;5091403;28;20032;-73
2023/05/01 04:52:36;;;;;;;0.10;0.10;;;9.40;99.90;;;;;;5086613;28;20024;-75
2023/05/01 04:55:04;;;;;;;0.10;0.10;;;9.50;99.90;;;;;;5093450;28;20627;-74
2023/05/01 04:57:30;;;;;;;0.20;0.20;;;9.50;99.90;;;;;;5083091;28;20201;-73
2023/05/01 04:59:56;;;;;;;0.10;0.10;;;9.50;99.90;;;;;;5086386;28;20349;-74
2023/05/01 05:02:22;;;;;;;0.10;0.10;;;9.50;99.90;;;;;;5083305;28;20028;-73
2023/05/01 05:04:48;;;;;;;0.10;0.10;;;9.60;99.90;;;;;;5106199;28;20115;-73
2023/05/01 05:07:14;;;;;;;0.10;0.10;;;9.70;99.90;;;;;;5112112;28;20051;-75
2023/05/01 05:09:40;;;;;;;0.10;0.10;;;9.80;99.90;;;;;;5109336;28;20509;-74
2023/05/01 05:12:06;;;;;;;10.32;4.85;;;9.90;99.90;;;;;;5087153;28;20017;-74
2023/05/01 05:14:32;;;;;;;0.10;0.10;;;9.90;99.90;;;;;;5094763;28;20027;-75
2023/05/01 05:16:57;;;;;;;0.10;0.10;;;9.90;99.90;;;;;;5096014;28;20194;-74
2023/05/01 05:19:23;;;;;;;0.68;0.68;;;10.00;99.90;;;;;;5094708;28;20047;-74
2023/05/01 05:21:49;;;;;;;0.10;0.10;;;10.10;99.90;;;;;;5084683;28;20300;-73
2023/05/01 05:24:15;;;;;;;0.03;0.03;;;10.20;99.90;;;;;;5093783;28;20070;-73
2023/05/01 05:26:41;;;;;;;0.10;0.10;;;10.20;99.90;;;;;;5082681;28;20518;-73
2023/05/01 05:29:07;;;;;;;0.10;0.10;;;10.30;99.90;;;;;;5091104;28;20639;-73
2023/05/01 05:31:33;;;;;;;0.10;0.10;;;10.40;99.90;;;;;;5082284;28;20031;-74
2023/05/01 05:33:58;;;;;;;0.10;0.10;;;10.50;99.90;;;;;;5081209;28;20115;-73
2023/05/01 05:36:26;;;;;;;0.20;0.20;;;10.60;99.90;;;;;;5081514;28;20205;-73
2023/05/01 05:38:52;;;;;;;0.10;0.10;;;10.80;99.90;;;;;;5083004;28;20119;-73
2023/05/01 05:41:17;;;;;;;0.10;0.10;;;10.90;99.90;;;;;;5088056;28;20043;-75
2023/05/01 05:43:43;;;;;;;1.23;1.23;;;10.90;99.90;;;;;;5096816;28;20099;-72
2023/05/01 05:46:10;;;;;;;0.20;0.20;;;11.10;99.90;;;;;;5094119;28;20032;-73
2023/05/01 05:48:37;;;;;;;2.00;1.95;;;11.20;99.90;;;;;;5102381;28;20462;-73
2023/05/01 05:51:15;;;;;;;3.60;3.38;;;11.30;99.90;;;;;;5086053;28;20036;-74
2023/05/01 05:53:41;;;;;;;0.20;0.20;;;11.50;99.90;;;;;;5080710;28;20032;-75
2023/05/01 05:56:07;;;;;;;0.10;0.10;;;11.60;99.90;;;;;;5082638;28;20052;-73
2023/05/01 05:58:33;;;;;;;0.10;0.10;;;15.20;99.90;;;;;;5079790;28;20427;-75
2023/05/01 06:00:59;;;;;;;0.10;0.10;;;11.80;99.90;;;;;;5078893;28;20040;-74
2023/05/01 06:03:26;;;;;;;0.10;0.10;;;11.90;99.90;;;;;;5078750;28;20027;-84
2023/05/01 06:05:52;;;;;;;0.40;0.40;;;12.10;99.90;;;;;;5081352;28;20050;-77
2023/05/01 06:08:17;;;;;;;0.20;0.20;;;12.20;99.90;;;;;;5083262;28;20089;-78
2023/05/01 06:10:43;;;;;;;0.20;0.20;;;12.30;99.90;;;;;;5082487;28;20099;-74
2023/05/01 06:13:10;;;;;;;0.70;0.70;;;12.50;99.90;;;;;;5079318;28;20023;-81
2023/05/01 06:15:37;;;;;;;0.13;0.13;;;12.60;99.90;;;;;;5080369;28;20052;-74
2023/05/01 06:18:03;;;;;;;0.20;0.20;;;12.70;99.90;;;;;;5080323;28;20589;-77
2023/05/01 06:20:29;;;;;;;0.10;0.10;;;12.80;99.90;;;;;;5080511;28;20027;-73
2023/05/01 06:22:56;;;;;;;0.10;0.10;;;12.90;99.90;;;;;;5081804;28;20172;-74
2023/05/01 06:25:23;;;;;;;0.20;0.20;;;12.90;99.90;;;;;;5080389;28;20020;-81
2023/05/01 06:27:51;;;;;;;0.15;0.15;;;12.80;99.90;;;;;;5078131;28;20035;-73
2023/05/01 06:30:18;;;;;;;0.10;0.10;;;13.30;99.90;;;;;;5078190;28;20012;-81
2023/05/01 06:32:45;;;;;;;0.10;0.10;;;13.00;99.90;;;;;;5078007;28;20111;-79
2023/05/01 06:35:11;;;;;;;1.00;1.00;;;12.90;99.90;;;;;;5076653;28;20032;-79
2023/05/01 06:37:37;;;;;;;1.02;1.00;;;12.90;99.90;;;;;;5078631;28;20020;-75
2023/05/01 06:40:06;;;;;;;2.15;2.05;;;13.00;99.90;;;;;;5078522;28;20607;-76
2023/05/01 06:42:32;;;;;;;0.17;0.17;;;13.40;99.90;;;;;;5078050;28;20418;-81
2023/05/01 06:44:57;;;;;;;1.48;1.40;;;13.10;99.90;;;;;;5078433;28;20089;-74
2023/05/01 06:47:24;;;;;;;0.22;0.22;;;13.20;99.90;;;;;;5078612;28;20016;-78
2023/05/01 06:49:49;;;;;;;0.40;0.40;;;13.30;99.90;;;;;;5078331;28;20031;-74
2023/05/01 06:52:15;;;;;;;0.75;0.75;;;13.30;99.90;;;;;;5077616;28;20125;-79
2023/05/01 06:54:41;;;;;;;0.20;0.20;;;13.40;99.90;;;;;;5077823;28;20079;-81
2023/05/01 06:57:07;;;;;;;0.20;0.20;;;13.40;99.90;;;;;;5078018;28;20044;-74
2023/05/01 06:59:32;;;;;;;0.20;0.20;;;13.40;99.90;;;;;;5078087;28;20665;-74
2023/05/01 07:01:58;;;;;;;3.53;3.30;;;13.60;99.90;;;;;;5078008;28;20177;-77
2023/05/01 07:04:24;;;;;;;2.00;1.95;;;12.60;99.90;;;;;;5077773;28;20081;-75
2023/05/01 07:06:50;;;;;;;0.10;0.10;;;13.60;99.90;;;;;;5077700;28;20028;-79
2023/05/01 07:09:16;;;;;;;0.10;0.10;;;13.90;99.90;;;;;;5076398;28;20028;-73
2023/05/01 07:11:42;;;;;;;0.20;0.20;;;14.10;99.90;;;;;;5076327;28;20016;-74
2023/05/01 07:14:07;;;;;;;0.30;0.30;;;14.00;99.90;;;;;;5077803;28;20098;-78
2023/05/01 07:16:33;;;;;;;6.20;5.78;;;14.30;99.90;;;;;;5077523;28;20020;-73
2023/05/01 07:18:59;;;;;;;3.40;3.05;;;12.00;99.90;;;;;;5077820;28;20020;-79
2023/05/01 07:21:25;;;;;;;0.10;0.10;;;14.80;99.90;;;;;;5078185;28;20097;-76
2023/05/01 07:23:51;;;;;;;0.40;0.40;;;14.60;99.90;;;;;;5077877;28;20055;-78
2023/05/01 07:26:17;;;;;;;0.10;0.10;;;14.70;99.90;;;;;;5076268;28;20028;-74
2023/05/01 07:28:42;;;;;;;0.20;0.20;;;14.90;99.90;;;;;;5077568;28;20031;-74
2023/05/01 07:31:11;;;;;;;0.50;0.50;;;15.00;99.90;;;;;;5077712;28;20163;-74
2023/05/01 07:33:37;;;;;;;0.20;0.20;;;15.10;99.90;;;;;;5077392;28;20290;-74
2023/05/01 07:36:03;;;;;;;2.40;2.30;;;15.10;99.90;;;;;;5076850;28;20586;-74
2023/05/01 07:38:29;;;;;;;0.10;0.10;;;15.30;99.90;;;;;;5077972;28;20012;-73
2023/05/01 07:40:55;;;;;;;0.10;0.10;;;15.40;99.90;;;;;;5081217;28;20024;-72
2023/05/01 07:43:22;;;;;;;0.10;0.10;;;15.60;99.90;;;;;;5080090;28;20541;-74
2023/05/01 07:46:01;;;;;;;0.10;0.10;;;15.60;99.90;;;;;;5081361;28;20553;-73
2023/05/01 07:48:27;;;;;;;2.38;2.22;;;15.90;99.90;;;;;;5081021;28;20020;-80
2023/05/01 07:50:55;;;;;;;0.10;0.10;;;16.00;99.90;;;;;;5081238;28;20224;-73
2023/05/01 07:53:23;;;;;;;1.67;0.98;;;16.20;99.90;;;;;;5080800;28;20036;-73
2023/05/01 07:55:49;;;;;;;0.10;0.10;;;16.30;99.90;;;;;;5080608;28;20761;-72
2023/05/01 07:58:19;;;;;;;2.08;1.98;;;16.40;99.90;;;;;;5081283;28;20036;-72
2023/05/01 08:00:45;;;;;;;0.28;0.28;;;16.70;99.90;;;;;;5080532;28;20034;-75
2023/05/01 08:03:11;;;;;;;0.30;0.30;;;16.70;99.90;;;;;;5080744;28;20017;-73
2023/05/01 08:05:41;;;;;;;0.10;0.10;;;16.70;99.90;;;;;;5080599;28;20189;-73
2023/05/01 08:08:08;;;;;;;0.10;0.10;;;16.90;99.90;;;;;;5080820;28;20012;-76
2023/05/01 08:10:34;;;;;;;0.10;0.10;;;17.10;99.90;;;;;;5080800;28;20038;-76
2023/05/01 08:13:00;;;;;;;0.10;0.10;;;17.40;99.90;;;;;;5080670;28;20219;-75
2023/05/01 08:15:28;;;;;;;0.10;0.10;;;17.70;99.90;;;;;;5080874;28;20625;-77
2023/05/01 08:17:54;;;;;;;0.10;0.10;;;17.70;99.90;;;;;;5080795;28;20082;-76
2023/05/01 08:20:19;;;;;;;0.10;0.10;;;17.80;99.90;;;;;;5080424;28;20028;-75
2023/05/01 08:22:45;;;;;;;0.10;0.10;;;18.10;99.80;;;;;;5080868;28;20020;-75
2023/05/01 08:25:11;;;;;;;0.30;0.30;;;18.20;99.70;;;;;;5080367;28;20077;-75
2023/05/01 08:27:37;;;;;;;0.10;0.10;;;18.50;99.90;;;;;;5080261;28;20020;-77
2023/05/01 08:30:03;;;;;;;0.10;0.10;;;18.60;99.90;;;;;;5080301;28;20082;-79
2023/05/01 08:32:29;;;;;;;0.10;0.10;;;18.60;99.40;;;;;;5079914;28;20024;-74
2023/05/01 08:34:55;;;;;;;0.17;0.17;;;18.80;98.80;;;;;;5080298;28;20081;-73
2023/05/01 08:37:21;;;;;;;0.10;0.10;;;18.90;97.00;;;;;;5080147;28;20565;-74
2023/05/01 08:39:47;;;;;;;4.38;2.45;;;19.00;96.70;;;;;;5080687;28;20099;-74
2023/05/01 08:42:13;;;;;;;0.10;0.10;;;18.90;95.40;;;;;;5080305;28;20055;-73
2023/05/01 08:44:39;;;;;;;0.15;0.15;;;18.90;93.50;;;;;;5078264;28;20024;-73
2023/05/01 08:47:16;;;;;;;0.30;0.30;;;18.90;93.70;;;;;;5079794;28;20048;-74
2023/05/01 08:49:43;;;;;;;0.10;0.10;;;19.10;95.20;;;;;;5079178;28;20054;-74
2023/05/01 08:52:13;;;;;;;0.10;0.10;;;19.40;95.10;;;;;;5079879;28;20016;-74
2023/05/01 08:54:43;;;;;;;0.10;0.10;;;19.50;93.20;;;;;;5077961;28;20074;-73
2023/05/01 08:57:10;;;;;;;0.20;0.20;;;19.70;92.50;;;;;;5079803;28;20020;-72
2023/05/01 08:59:38;;;;;;;0.10;0.10;;;19.70;89.00;;;;;;5079376;28;20099;-73
2023/05/01 09:02:06;;;;;;;0.10;0.10;;;19.90;89.00;;;;;;5079436;28;20020;-73
2023/05/01 09:04:36;;;;;;;0.10;0.10;;;20.10;89.50;;;;;;5079424;28;20079;-75
2023/05/01 09:07:03;;;;;;;0.10;0.10;;;20.20;83.00;;;;;;5079874;28;20057;-73
2023/05/01 09:09:30;;;;;;;0.10;0.10;;;20.30;86.60;;;;;;5079639;28;20056;-74
2023/05/01 09:12:18;;;;;;;0.10;0.10;;;20.00;82.40;;;;;;5080094;28;20522;-78
2023/05/01 09:14:46;;;;;;;0.10;0.10;;;20.00;79.10;;;;;;5078152;28;20038;-73
2023/05/01 09:17:14;;;;;;;0.70;0.70;;;19.90;80.60;;;;;;5079139;28;20408;-73
2023/05/01 09:19:43;;;;;;;0.10;0.10;;;20.20;80.80;;;;;;5079451;28;20021;-74
2023/05/01 09:22:09;;;;;;;0.10;0.10;;;20.20;75.90;;;;;;5078158;28;20145;-74
2023/05/01 09:24:34;;;;;;;0.10;0.10;;;20.40;75.70;;;;;;5079374;28;20534;-75
2023/05/01 09:27:00;;;;;;;0.10;0.10;;;19.90;79.00;;;;;;5077361;28;20024;-74
2023/05/01 09:29:40;;;;;;;0.10;0.10;;;20.50;79.00;;;;;;5079292;28;20024;-74
2023/05/01 09:32:15;;;;;;;0.10;0.10;;;20.40;76.80;;;;;;5079011;28;20013;-74
2023/05/01 09:34:46;;;;;;;0.10;0.10;;;20.80;77.20;;;;;;5079314;28;20020;-74
2023/05/01 09:37:32;;;;;;;0.10;0.10;;;20.90;75.50;;;;;;5079121;28;20654;-74
2023/05/01 09:40:09;;;;;;;0.10;0.10;;;21.30;73.80;;;;;;5079235;28;20184;-74
2023/05/01 09:42:39;;;;;;;0.10;0.10;;;21.20;73.00;;;;;;5077680;28;20020;-75
2023/05/01 09:45:14;;;;;;;0.05;0.05;;;21.40;71.30;;;;;;5078754;28;20158;-77
2023/05/01 09:47:45;;;;;;;0.10;0.10;;;21.30;70.10;;;;;;5079172;28;20055;-75
2023/05/01 09:50:32;;;;;;;0.10;0.10;;;21.30;71.90;;;;;;5077857;28;20019;-75
2023/05/01 09:53:03;;;;;;;0.90;0.90;;;21.20;71.00;;;;;;5078156;28;20059;-75
2023/05/01 09:55:29;;;;;;;0.10;0.10;;;21.40;74.30;;;;;;5078741;28;20432;-76
2023/05/01 09:57:57;;;;;;;0.10;0.10;;;21.50;72.20;;;;;;5079093;28;20074;-77
2023/05/01 10:00:29;;;;;;;0.10;0.10;;;21.80;71.50;;;;;;5078623;28;20016;-75
2023/05/01 10:02:54;;;;;;;0.10;0.10;;;22.10;67.70;;;;;;5078069;28;20020;-74
2023/05/01 10:05:21;;;;;;;0.10;0.10;;;22.10;64.70;;;;;;5078241;28;20073;-74
2023/05/01 10:08:03;;;;;;;0.10;0.10;;;22.30;67.70;;;;;;5078282;28;20024;-74
2023/05/01 10:10:29;;;;;;;0.10;0.10;;;22.30;66.60;;;;;;5078119;28;20297;-75
2023/05/01 10:12:55;;;;;;;0.03;0.03;;;22.20;66.50;;;;;;5078803;28;20732;-74
2023/05/01 10:15:35;;;;;;;0.10;0.10;;;22.40;68.60;;;;;;5078458;28;20028;-74
2023/05/01 10:18:04;;;;;;;0.10;0.10;;;22.40;66.30;;;;;;5078366;28;20166;-74
2023/05/01 10:20:31;;;;;;;0.10;0.10;;;22.40;67.90;;;;;;5078181;28;20478;-74
2023/05/01 10:22:59;;;;;;;0.10;0.10;;;22.60;64.00;;;;;;5076650;28;20032;-75
2023/05/01 10:25:28;;;;;;;0.00;0.00;;;22.60;63.00;;;;;;5078205;28;20020;-78
2023/05/01 10:27:57;;;;;;;0.10;0.10;;;22.60;62.50;;;;;;5078261;28;20107;-74
2023/05/01 10:30:25;;;;;;;0.90;0.90;;;22.80;61.10;;;;;;5078410;28;20653;-73
2023/05/01 10:32:54;;;;;;;0.00;0.00;;;22.80;65.00;;;;;;5077779;28;20111;-74
2023/05/01 10:35:26;;;;;;;0.10;0.10;;;23.40;62.80;;;;;;5077813;28;20036;-73
2023/05/01 10:38:02;;;;;;;0.00;0.00;;;23.30;60.70;;;;;;5077975;28;20630;-75
2023/05/01 10:40:43;;;;;;;0.00;0.00;;;23.30;62.20;;;;;;5078187;28;20036;-73
2023/05/01 10:43:25;;;;;;;0.10;0.10;;;23.50;61.60;;;;;;5077975;28;20098;-74
2023/05/01 10:45:52;;;;;;;0.00;0.00;;;23.70;61.10;;;;;;5076237;28;20102;-75
2023/05/01 10:48:36;;;;;;;0.10;0.10;;;23.80;60.30;;;;;;5077494;28;20012;-73
2023/05/01 10:51:16;;;;;;;0.10;0.10;;;23.90;60.30;;;;;;5076636;28;20092;-73
2023/05/01 10:53:43;;;;;;;0.95;0.68;;;24.10;58.10;;;;;;5076159;28;20047;-80
2023/05/01 10:56:25;;;;;;;0.10;0.10;;;23.80;59.50;;;;;;5078094;28;20028;-80
2023/05/01 10:58:56;;;;;;;0.10;0.10;;;23.70;59.90;;;;;;5077806;28;20024;-76
2023/05/01 11:01:30;;;;;;;0.20;0.20;;;24.10;57.90;;;;;;5078046;28;20027;-82
2023/05/01 11:03:58;;;;;;;0.10;0.10;;;24.20;58.20;;;;;;5078611;28;20032;-80
2023/05/01 11:06:24;;;;;;;0.30;0.30;;;24.50;57.10;;;;;;5078419;28;20078;-81
2023/05/01 11:08:50;;;;;;;0.08;0.08;;;24.40;56.70;;;;;;5077158;28;20097;-79
2023/05/01 11:11:21;;;;;;;0.03;0.03;;;24.70;58.60;;;;;;5077990;28;20274;-80
2023/05/01 11:14:09;;;;;;;0.10;0.10;;;24.80;56.90;;;;;;5080581;28;20028;-80
2023/05/01 11:16:38;;;;;;;0.10;0.10;;;25.00;59.00;;;;;;5082109;28;20036;-81
2023/05/01 11:19:08;;;;;;;0.10;0.10;;;25.10;57.20;;;;;;5081893;28;20016;-81
2023/05/01 11:21:40;;;;;;;0.10;0.10;;;25.10;55.50;;;;;;5080819;28;20607;-81
2023/05/01 11:24:06;;;;;;;0.10;0.10;;;24.90;54.60;;;;;;5081641;28;20042;-79
2023/05/01 11:26:37;;;;;;;0.10;0.10;;;24.90;57.10;;;;;;5081626;28;20035;-81
2023/05/01 11:29:04;;;;;;;0.00;0.00;;;25.50;57.60;;;;;;5081656;28;20023;-81
2023/05/01 11:31:30;;;;;;;0.00;0.00;;;25.80;54.40;;;;;;5079819;28;20036;-81
2023/05/01 11:33:57;;;;;;;0.22;0.22;;;25.60;54.90;;;;;;5081612;28;20494;-82
2023/05/01 11:36:23;;;;;;;0.10;0.10;;;25.80;54.30;;;;;;5082153;28;20028;-78
2023/05/01 11:38:55;;;;;;;0.00;0.00;;;27.10;55.40;;;;;;5081920;28;20051;-84
2023/05/01 11:41:22;;;;;;;0.10;0.10;;;26.70;55.70;;;;;;5081596;28;20024;-79
2023/05/01 11:43:54;;;;;;;0.15;0.15;;;26.90;54.10;;;;;;5081621;28;20032;-74
2023/05/01 11:46:31;;;;;;;0.17;0.17;;;27.40;53.10;;;;;;5081464;28;20027;-80
2023/05/01 11:49:01;;;;;;;0.00;0.00;;;26.60;53.00;;;;;;5081633;28;20016;-81
2023/05/01 11:51:27;;;;;;;0.00;0.00;;;26.20;53.20;;;;;;5081524;28;20093;-81
2023/05/01 11:54:12;;;;;;;0.10;0.10;;;26.00;52.90;;;;;;5081224;28;20089;-75
2023/05/01 11:56:39;;;;;;;0.00;0.00;;;25.80;53.30;;;;;;5081199;28;20032;-73
2023/05/01 11:59:16;;;;;;;0.10;0.10;;;25.30;52.10;;;;;;5081393;28;20518;-74
2023/05/01 12:01:44;;;;;;;0.65;0.65;;;24.60;52.30;;;;;;5081395;28;20024;-79
2023/05/01 12:04:11;;;;;;;0.38;0.38;;;24.50;52.90;;;;;;5081404;28;20021;-82
2023/05/01 12:06:46;;;;;;;0.40;0.40;;;24.20;53.10;;;;;;5081003;28;20023;-75
2023/05/01 12:09:23;;;;;;;2.35;0.65;;;24.20;54.80;;;;;;5080670;28;20733;-75
2023/05/01 12:11:51;;;;;;;1.58;1.13;;;23.90;54.20;;;;;;5080769;28;20062;-73
2023/05/01 12:14:17;;;;;;;0.22;0.22;;;23.90;55.60;;;;;;5080227;28;20111;-73
2023/05/01 12:16:44;;;;;;;0.15;0.15;;;24.40;55.90;;;;;;5080245;28;20036;-72
2023/05/01 12:19:13;;;;;;;2.30;1.85;;;25.00;55.50;;;;;;5080630;28;20020;-71
2023/05/01 12:21:39;;;;;;;0.10;0.10;;;25.00;53.70;;;;;;5080557;28;20028;-82
2023/05/01 12:24:17;;;;;;;3.58;1.20;;;24.90;52.70;;;;;;5078992;28;20016;-72
2023/05/01 12:26:44;;;;;;;2.85;2.65;;;24.90;53.00;;;;;;5079008;28;20553;-74
2023/05/01 12:29:11;;;;;;;0.10;0.10;;;24.50;53.00;;;;;;5080699;28;20022;-72
2023/05/01 12:31:45;;;;;;;0.20;0.20;;;24.50;53.40;;;;;;5078085;28;20052;-74
2023/05/01 12:34:11;;;;;;;0.32;0.32;;;24.10;53.80;;;;;;5080582;28;20016;-74
2023/05/01 12:36:37;;;;;;;0.10;0.10;;;24.30;55.40;;;;;;5080379;28;20534;-76
2023/05/01 12:39:10;;;;;;;0.80;0.65;;;24.40;54.10;;;;;;5080736;28;20270;-75
2023/05/01 12:41:39;;;;;;;3.08;1.83;;;24.40;54.60;;;;;;5080325;28;20020;-74
2023/05/01 12:44:22;;;;;;;0.05;0.05;;;23.80;55.00;;;;;;5080260;28;20012;-73
2023/05/01 12:46:55;;;;;;;3.60;1.15;;;24.10;54.70;;;;;;5079943;28;20027;-79
2023/05/01 12:49:22;;;;;;;3.35;2.83;;;24.00;55.00;;;;;;5080014;28;20030;-74
2023/05/01 12:51:54;;;;;;;6.40;4.20;;;24.20;55.00;;;;;;5080080;28;20723;-76
2023/05/01 12:54:26;;;;;;;2.17;1.70;;;24.70;55.70;;;;;;5079815;28;20044;-73